Weather History for KBIE - September, 2012

Change the Weather History Date:

Wednesday, September 19, 2012

  Actual Average (KLNK) Record (KLNK)
Temperature  
Mean Temperature 72 °F 65 °F  
Max Temperature 91 °F 78 °F 98 °F (1895)
Min Temperature 52 °F 52 °F 29 °F (1991)
Degree Days  
Heating Degree Days 0 4  
Month to date heating degree days 35  
Since 1 July heating degree days 41  
Cooling Degree Days 6 3  
Month to date cooling degree days 99  
Year to date cooling degree days 1134  
Growing Degree Days 22 (Base 50)    
Moisture  
Dew Point 39 °F    
Average Humidity 41    
Maximum Humidity 77    
Minimum Humidity 9    
Precipitation  
Precipitation 0.00 in 0.10 in 1.55 in (1998)
Month to date precipitation 2.03  
Year to date precipitation 23.61  
Snow  
Snow 0.00 in 0.00 in - ()
Month to date snowfall 0.0  
Since 1 July snowfall 0.0  
Snow Depth -    
Sea Level Pressure  
Sea Level Pressure 29.90 in    
Wind  
Wind Speed 9 mph (SSW)    
Max Wind Speed 22 mph    
Max Gust Speed 28 mph    
Visibility 10 miles    
Events      
T = Trace of Precipitation, MM = Missing Value Source: NWS Daily Summary

Daily Weather History Graph

Daily Weather History Graph

Search for Another Location

Airport or City:

Trip Planner

Search our weather history database for the weather conditions in past years. The results will help you decide how hot, cold, wet, or windy it might be!

Date:

Astronomy

Sep. 19, 2012 Rise Set
Actual Time 7:12 AM CDT 7:28 PM CDT
Civil Twilight 6:44 AM CDT 7:55 PM CDT
Nautical Twilight 6:13 AM CDT 8:27 PM CDT
Astronomical Twilight 5:40 AM CDT 8:59 PM CDT
Moon 11:24 AM CDT (9/19) 9:37 PM CDT (9/19)
Length of Visible Light 13h 10m
Length of Day
12h 16m
Waxing Crescent, 17% of the Moon is Illuminated
Sep 19
Waxing Crescent
Sep 22
First Quarter
Sep 29
Full
Oct 8
Last Quarter
Oct 15
New

Hourly Weather History & Observations

Time (CDT) Temp. Dew Point Humidity Pressure Visibility Wind Dir Wind Speed Gust Speed Precip Events Conditions
12:15 AM 58.8 °F 41.0 °F 52% 29.93 in 10.0 mi SSE 9.2 mph - N/A   Clear
12:35 AM 59.9 °F 41.5 °F 51% 29.93 in 10.0 mi SSE 11.5 mph - N/A   Clear
12:55 AM 59.4 °F 42.3 °F 53% 29.93 in 10.0 mi SSE 10.4 mph - N/A   Clear
1:15 AM 59.0 °F 42.8 °F 55% 29.92 in 10.0 mi South 10.4 mph - N/A   Clear
1:35 AM 59.0 °F 43.0 °F 55% 29.92 in 10.0 mi SSE 10.4 mph - N/A   Clear
1:55 AM 58.1 °F 43.5 °F 58% 29.91 in 10.0 mi SSE 9.2 mph - N/A   Clear
2:15 AM 57.4 °F 43.9 °F 61% 29.91 in 10.0 mi SSE 8.1 mph - N/A   Clear
2:35 AM 57.0 °F 44.2 °F 62% 29.91 in 10.0 mi SSE 8.1 mph - N/A   Clear
2:55 AM 56.3 °F 44.6 °F 65% 29.91 in 10.0 mi South 5.8 mph - N/A   Clear
3:15 AM 56.3 °F 44.6 °F 65% 29.91 in 10.0 mi South 6.9 mph - N/A   Clear
3:35 AM 56.3 °F 44.6 °F 65% 29.90 in 10.0 mi South 6.9 mph - N/A   Clear
3:55 AM 56.3 °F 44.6 °F 65% 29.90 in 10.0 mi South 6.9 mph - N/A   Clear
4:15 AM 56.3 °F 44.2 °F 64% 29.89 in 10.0 mi South 5.8 mph - N/A   Clear
4:35 AM 55.4 °F 44.6 °F 67% 29.89 in 10.0 mi South 6.9 mph - N/A   Clear
4:55 AM 55.6 °F 44.1 °F 65% 29.89 in 10.0 mi South 8.1 mph - N/A   Clear
5:15 AM 55.4 °F 44.6 °F 67% 29.89 in 10.0 mi South 6.9 mph - N/A   Clear
5:35 AM 54.7 °F 44.4 °F 68% 29.89 in 10.0 mi South 5.8 mph - N/A   Clear
5:55 AM 54.5 °F 44.4 °F 69% 29.89 in 10.0 mi South 5.8 mph - N/A   Clear
6:15 AM 53.8 °F 44.6 °F 71% 29.89 in 10.0 mi South 6.9 mph - N/A   Clear
6:35 AM 53.4 °F 44.2 °F 71% 29.89 in 10.0 mi South 5.8 mph - N/A   Clear
6:55 AM 52.7 °F 44.2 °F 73% 29.89 in 10.0 mi South 5.8 mph - N/A   Clear
7:15 AM 52.9 °F 44.6 °F 73% 29.90 in 10.0 mi South 6.9 mph - N/A   Clear
7:35 AM 53.1 °F 44.8 °F 73% 29.90 in 10.0 mi South 4.6 mph - N/A   Clear
7:55 AM 53.6 °F 46.4 °F 77% 29.89 in 10.0 mi South 5.8 mph - N/A   Clear
8:15 AM 55.8 °F 45.5 °F 68% 29.89 in 10.0 mi South 5.8 mph - N/A   Clear
8:35 AM 57.6 °F 45.5 °F 64% 29.89 in 10.0 mi South 9.2 mph - N/A   Clear
8:55 AM 59.2 °F 45.1 °F 60% 29.89 in 10.0 mi SSW 8.1 mph - N/A   Clear
9:15 AM 61.7 °F 44.6 °F 53% 29.89 in 10.0 mi SSW 10.4 mph - N/A   Clear
9:35 AM 64.4 °F 44.6 °F 49% 29.89 in 10.0 mi SSW 8.1 mph - N/A   Clear
9:55 AM 66.2 °F 43.7 °F 44% 29.89 in 10.0 mi SSW 10.4 mph - N/A   Clear
10:15 AM 67.8 °F 43.5 °F 41% 29.88 in 10.0 mi SSW 10.4 mph - N/A   Clear
10:35 AM 70.2 °F 43.5 °F 38% 29.88 in 10.0 mi SSW 9.2 mph - N/A   Clear
10:55 AM 72.7 °F 43.2 °F 35% 29.88 in 10.0 mi SSW 9.2 mph - N/A   Clear
11:15 AM 74.1 °F 43.0 °F 33% 29.88 in 10.0 mi SSW 9.2 mph - N/A   Clear
11:35 AM 76.5 °F 42.6 °F 30% 29.88 in 10.0 mi South 10.4 mph - N/A   Clear
11:55 AM 78.8 °F 42.4 °F 27% 29.87 in 10.0 mi SSW 10.4 mph - N/A   Clear
12:15 PM 81.1 °F 41.7 °F 25% 29.88 in 10.0 mi South 13.8 mph - N/A   Clear
12:35 PM 82.6 °F 41.4 °F 23% 29.87 in 10.0 mi SSW 12.7 mph - N/A   Clear
12:55 PM 82.9 °F 40.3 °F 22% 29.87 in 10.0 mi SSW 12.7 mph - N/A   Clear
1:15 PM 84.2 °F 40.8 °F 22% 29.85 in 10.0 mi SSW 12.7 mph - N/A   Clear
1:35 PM 85.6 °F 39.7 °F 20% 29.85 in 10.0 mi SSW 11.5 mph 16.1 mph N/A   Clear
1:55 PM 87.3 °F 37.9 °F 17% 29.84 in 10.0 mi SSW 11.5 mph 18.4 mph N/A   Clear
2:15 PM 88.7 °F 37.4 °F 16% 29.83 in 10.0 mi SW 12.7 mph - N/A   Clear
2:35 PM 90.3 °F 36.5 °F 15% 29.83 in 10.0 mi SSW 11.5 mph 19.6 mph N/A   Clear
2:55 PM 90.7 °F 35.6 °F 14% 29.83 in 10.0 mi West 13.8 mph 18.4 mph N/A   Clear
3:15 PM 90.5 °F 36.5 °F 15% 29.83 in 10.0 mi WSW 10.4 mph 18.4 mph N/A   Clear
3:35 PM 90.9 °F 36.1 °F 15% 29.82 in 10.0 mi WSW 15.0 mph 19.6 mph N/A   Clear
3:55 PM 91.4 °F 35.6 °F 14% 29.82 in 10.0 mi West 13.8 mph 23.0 mph N/A   Clear
4:15 PM 91.8 °F 34.7 °F 13% 29.82 in 10.0 mi WSW 13.8 mph 19.6 mph N/A   Clear
4:35 PM 91.4 °F 24.6 °F 9% 29.83 in 10.0 mi NNW 12.7 mph 21.9 mph N/A   Clear
4:55 PM 90.0 °F 23.2 °F 9% 29.83 in 10.0 mi North 18.4 mph 25.3 mph N/A   Clear
5:15 PM 89.1 °F 23.0 °F 9% 29.85 in 10.0 mi North 21.9 mph 27.6 mph N/A   Clear
5:35 PM 86.9 °F 25.5 °F 11% 29.86 in 10.0 mi North 20.7 mph 27.6 mph N/A   Clear
5:55 PM 85.3 °F 26.2 °F 12% 29.87 in 10.0 mi North 17.3 mph 23.0 mph N/A   Clear
6:15 PM 83.7 °F 28.4 °F 13% 29.88 in 10.0 mi North 17.3 mph 20.7 mph N/A   Clear
6:35 PM 82.4 °F 29.1 °F 14% 29.88 in 10.0 mi North 12.7 mph 17.3 mph N/A   Clear
6:55 PM 79.9 °F 32.0 °F 18% 29.90 in 10.0 mi North 6.9 mph - N/A   Clear
7:15 PM 73.8 °F 37.0 °F 26% 29.91 in 10.0 mi North 8.1 mph - N/A   Clear
7:35 PM 72.5 °F 36.1 °F 27% 29.91 in 10.0 mi North 9.2 mph - N/A   Clear
7:55 PM 67.5 °F 37.9 °F 34% 29.93 in 10.0 mi North 9.2 mph - N/A   Clear
8:15 PM 65.7 °F 39.0 °F 38% 29.94 in 10.0 mi North 10.4 mph - N/A   Clear
8:35 PM 64.6 °F 39.0 °F 39% 29.95 in 10.0 mi North 9.2 mph - N/A   Clear
8:55 PM 64.9 °F 37.4 °F 36% 29.96 in 10.0 mi North 6.9 mph - N/A   Clear
9:15 PM 63.5 °F 37.9 °F 39% 29.98 in 10.0 mi NNE 3.5 mph - N/A   Clear
9:35 PM 64.2 °F 35.4 °F 34% 29.99 in 10.0 mi NNE 6.9 mph - N/A   Clear
9:55 PM 66.2 °F 32.2 °F 28% 29.99 in 10.0 mi North 9.2 mph - N/A   Clear
10:15 PM 61.2 °F 35.2 °F 38% 30.00 in 10.0 mi NNE 8.1 mph - N/A   Clear
10:35 PM 61.3 °F 35.1 °F 37% 30.01 in 10.0 mi North 5.8 mph - N/A   Clear
10:55 PM 58.1 °F 37.4 °F 46% 30.01 in 10.0 mi NNE 4.6 mph - N/A   Clear
11:15 PM 56.5 °F 36.3 °F 47% 30.02 in 10.0 mi NNE 4.6 mph - N/A   Clear
11:35 PM 57.0 °F 35.8 °F 45% 30.02 in 10.0 mi North 5.8 mph - N/A   Clear
11:55 PM 56.3 °F 36.0 °F 46% 30.02 in 10.0 mi NE 3.5 mph - N/A   Clear